Time;durP1;ratioP1;P1;durP2;ratioP2;P2;SDS_P1;SDS_P2;PMS_P1;PMS_P2;Temp;Humidity;BMP_temperature;BMP_pressure;BME280_temperature;BME280_humidity;BME280_pressure;Samples;Min_cycle;Max_cycle;Signal;HPM_P1;HPM_P2
2023/12/12 00:00:00;;;;;;;0.30;0.30;;;;;;;5.31;100.00;100687.06;5114593;28;20023;-50
2023/12/12 00:02:25;;;;;;;0.30;0.30;;;;;;;5.35;100.00;100685.56;5115216;28;20035;-47
2023/12/12 00:04:51;;;;;;;0.30;0.30;;;;;;;5.27;100.00;100682.63;5115310;28;20118;-45
2023/12/12 00:07:16;;;;;;;0.30;0.30;;;;;;;5.15;100.00;100685.47;5114221;28;20035;-50
2023/12/12 00:09:42;;;;;;;0.40;0.40;;;;;;;5.09;100.00;100683.47;5115094;28;20481;-49
2023/12/12 00:12:07;;;;;;;0.30;0.30;;;;;;;5.07;100.00;100692.75;5115382;28;20027;-47
2023/12/12 00:14:33;;;;;;;0.30;0.30;;;;;;;5.09;100.00;100687.72;5114222;28;20371;-51
2023/12/12 00:16:58;;;;;;;0.30;0.30;;;;;;;5.03;100.00;100692.50;5115125;28;20111;-50
2023/12/12 00:19:23;;;;;;;0.32;0.32;;;;;;;5.02;100.00;100698.41;5114818;28;20102;-51
2023/12/12 00:21:48;;;;;;;0.40;0.40;;;;;;;5.04;100.00;100694.28;5114171;28;20360;-50
2023/12/12 00:24:14;;;;;;;0.40;0.40;;;;;;;4.99;100.00;100694.03;5114610;28;20042;-51
2023/12/12 00:26:39;;;;;;;0.40;0.40;;;;;;;4.90;100.00;100686.78;5114939;28;20502;-48
2023/12/12 00:29:04;;;;;;;0.30;0.30;;;;;;;4.89;100.00;100689.28;5114250;28;20110;-51
2023/12/12 00:31:30;;;;;;;0.30;0.30;;;;;;;4.78;100.00;100691.28;5114632;28;20403;-48
2023/12/12 00:33:56;;;;;;;0.40;0.40;;;;;;;4.78;100.00;100689.59;5114693;28;20329;-50
2023/12/12 00:36:21;;;;;;;0.40;0.40;;;;;;;4.78;100.00;100693.84;5113577;28;20027;-49
2023/12/12 00:38:46;;;;;;;0.30;0.30;;;;;;;4.93;100.00;100686.97;5114558;28;20028;-51
2023/12/12 00:41:11;;;;;;;0.40;0.40;;;;;;;4.89;100.00;100687.59;5114477;28;20027;-50
2023/12/12 00:43:40;;;;;;;0.30;0.30;;;;;;;4.97;100.00;100689.66;5114008;28;20019;-45
2023/12/12 00:46:05;;;;;;;0.30;0.30;;;;;;;5.06;100.00;100695.22;5114644;28;20023;-50
2023/12/12 00:48:31;;;;;;;0.30;0.30;;;;;;;5.13;100.00;100689.63;5113232;28;20044;-48
2023/12/12 00:50:56;;;;;;;0.30;0.30;;;;;;;5.22;100.00;100684.94;5114639;28;20118;-49
2023/12/12 00:53:21;;;;;;;0.40;0.40;;;;;;;5.18;100.00;100677.94;5113992;28;20028;-47
2023/12/12 00:55:47;;;;;;;0.32;0.32;;;;;;;5.15;100.00;100680.34;5113757;28;20040;-49
2023/12/12 00:58:12;;;;;;;0.40;0.40;;;;;;;5.11;100.00;100683.53;5114190;28;20107;-50
2023/12/12 01:00:37;;;;;;;0.30;0.30;;;;;;;5.17;100.00;100682.97;5114410;28;20080;-47
2023/12/12 01:03:02;;;;;;;0.30;0.30;;;;;;;5.14;100.00;100678.59;5113435;28;20106;-47
2023/12/12 01:05:28;;;;;;;0.30;0.30;;;;;;;5.14;100.00;100678.59;5113704;28;20490;-49
2023/12/12 01:07:53;;;;;;;0.30;0.30;;;;;;;5.15;100.00;100675.25;5114168;28;20467;-50
2023/12/12 01:10:19;;;;;;;0.38;0.38;;;;;;;5.09;100.00;100674.94;5113155;28;20055;-49
2023/12/12 01:12:44;;;;;;;0.40;0.40;;;;;;;5.03;100.00;100672.09;5114125;28;20031;-49
2023/12/12 01:15:10;;;;;;;0.30;0.30;;;;;;;4.95;100.00;100671.69;5113690;28;20024;-47
2023/12/12 01:17:35;;;;;;;0.30;0.30;;;;;;;4.93;100.00;100674.19;5113231;28;20094;-50
2023/12/12 01:20:00;;;;;;;0.40;0.40;;;;;;;4.88;100.00;100673.09;5113856;28;20440;-48
2023/12/12 01:22:26;;;;;;;0.38;0.38;;;;;;;4.78;100.00;100664.06;5113364;28;20395;-47
2023/12/12 01:24:51;;;;;;;0.40;0.40;;;;;;;4.72;100.00;100660.34;5113267;28;20486;-50
2023/12/12 01:27:16;;;;;;;0.30;0.30;;;;;;;4.68;100.00;100650.78;5113407;28;20076;-49
2023/12/12 01:29:41;;;;;;;0.40;0.40;;;;;;;4.68;100.00;100661.84;5113805;28;20464;-48
2023/12/12 01:32:07;;;;;;;0.35;0.35;;;;;;;4.68;100.00;100661.00;5113006;28;20022;-50
2023/12/12 01:34:32;;;;;;;0.30;0.30;;;;;;;4.58;100.00;100657.97;5113225;28;20035;-49
2023/12/12 01:36:58;;;;;;;0.38;0.38;;;;;;;4.65;100.00;100650.59;5113536;28;20479;-48
2023/12/12 01:39:23;;;;;;;0.30;0.30;;;;;;;4.63;100.00;100649.69;5112686;28;20027;-48
2023/12/12 01:41:49;;;;;;;0.30;0.30;;;;;;;4.61;100.00;100644.50;5113440;28;20108;-51
2023/12/12 01:44:14;;;;;;;0.30;0.30;;;;;;;4.57;100.00;100647.66;5113410;28;20120;-51
2023/12/12 01:46:48;;;;;;;0.40;0.40;;;;;;;4.67;100.00;100649.88;5112638;28;20493;-51
2023/12/12 01:49:15;;;;;;;0.40;0.40;;;;;;;4.64;100.00;100648.88;5112963;28;20118;-50
2023/12/12 01:51:45;;;;;;;0.30;0.30;;;;;;;4.65;100.00;100650.59;5113354;28;20155;-50
2023/12/12 01:54:11;;;;;;;0.40;0.40;;;;;;;4.68;100.00;100643.13;5112190;28;20471;-49
2023/12/12 01:56:36;;;;;;;0.40;0.40;;;;;;;4.68;100.00;100644.00;5113287;28;20027;-50
2023/12/12 01:59:02;;;;;;;0.35;0.35;;;;;;;4.66;100.00;100650.72;5112591;28;20077;-49
2023/12/12 02:01:28;;;;;;;0.30;0.30;;;;;;;4.69;100.00;100655.09;5112906;28;20467;-47
2023/12/12 02:03:56;;;;;;;0.30;0.30;;;;;;;4.70;100.00;100649.16;5113137;28;20031;-50
2023/12/12 02:06:22;;;;;;;0.40;0.40;;;;;;;4.77;100.00;100652.09;5112147;28;20111;-50
2023/12/12 02:08:53;;;;;;;0.40;0.40;;;;;;;4.76;100.00;100646.94;5113908;28;20028;-47
2023/12/12 02:11:19;;;;;;;0.35;0.35;;;;;;;4.74;100.00;100649.41;5113006;28;20119;-50
2023/12/12 02:13:45;;;;;;;0.40;0.40;;;;;;;4.73;100.00;100651.88;5112545;28;20103;-51
2023/12/12 02:16:12;;;;;;;0.40;0.40;;;;;;;4.68;100.00;100645.69;5112917;28;20030;-50
2023/12/12 02:18:37;;;;;;;0.30;0.30;;;;;;;4.74;100.00;100651.09;5113052;28;20528;-50
2023/12/12 02:21:03;;;;;;;0.30;0.30;;;;;;;4.70;100.00;100651.72;5116363;28;20289;-48
2023/12/12 02:23:30;;;;;;;0.40;0.40;;;;;;;4.79;100.00;100642.00;5117265;28;20115;-46
2023/12/12 02:25:56;;;;;;;0.40;0.40;;;;;;;4.81;100.00;100640.38;5117088;28;20371;-47
2023/12/12 02:28:21;;;;;;;0.40;0.40;;;;;;;4.82;100.00;100634.47;5116110;28;20023;-47
2023/12/12 02:30:47;;;;;;;0.40;0.40;;;;;;;4.86;100.00;100640.63;5117127;28;20023;-50
2023/12/12 02:33:12;;;;;;;0.30;0.30;;;;;;;4.82;100.00;100634.47;5116684;28;20024;-48
2023/12/12 02:35:37;;;;;;;0.40;0.40;;;;;;;4.81;100.00;100635.25;5116298;28;20074;-47
2023/12/12 02:38:02;;;;;;;0.40;0.40;;;;;;;4.79;100.00;100634.34;5117085;28;20031;-50
2023/12/12 02:40:28;;;;;;;0.40;0.40;;;;;;;4.78;100.00;100632.56;5116822;28;20024;-49
2023/12/12 02:42:53;;;;;;;0.30;0.30;;;;;;;4.73;100.00;100626.34;5116259;28;20035;-48
2023/12/12 02:45:18;;;;;;;0.40;0.40;;;;;;;4.71;100.00;100620.28;5116601;28;20039;-49
2023/12/12 02:47:44;;;;;;;0.40;0.40;;;;;;;4.71;100.00;100625.41;5116546;28;20051;-50
2023/12/12 02:50:09;;;;;;;0.40;0.40;;;;;;;4.61;100.00;100627.50;5115824;28;20041;-46
2023/12/12 02:52:35;;;;;;;0.40;0.40;;;;;;;4.59;100.00;100626.53;5116852;28;20032;-50
2023/12/12 02:55:00;;;;;;;0.40;0.40;;;;;;;4.55;100.00;100619.53;5116798;28;20031;-47
2023/12/12 02:57:25;;;;;;;0.40;0.40;;;;;;;4.55;100.00;100623.78;5115605;28;20019;-50
2023/12/12 02:59:51;;;;;;;0.40;0.40;;;;;;;4.56;100.00;100621.28;5116548;28;20024;-51
2023/12/12 03:02:16;;;;;;;0.40;0.40;;;;;;;4.57;100.00;100617.94;5115380;28;20058;-47
2023/12/12 03:04:45;;;;;;;0.38;0.38;;;;;;;4.56;100.00;100626.38;5116425;28;20027;-50
2023/12/12 03:07:11;;;;;;;0.40;0.40;;;;;;;4.58;100.00;100629.91;5115950;28;20040;-50
2023/12/12 03:09:36;;;;;;;0.40;0.40;;;;;;;4.51;100.00;100617.63;5115653;28;20023;-51
2023/12/12 03:12:01;;;;;;;0.40;0.40;;;;;;;4.59;100.00;100621.44;5116417;28;20031;-48
2023/12/12 03:14:29;;;;;;;0.40;0.40;;;;;;;4.54;100.00;100622.88;5116139;28;20041;-50
2023/12/12 03:16:54;;;;;;;0.38;0.38;;;;;;;4.58;100.00;100617.16;5115492;28;20028;-50
2023/12/12 03:19:19;;;;;;;0.47;0.47;;;;;;;4.57;100.00;100617.94;5116133;28;20485;-48
2023/12/12 03:21:45;;;;;;;0.40;0.40;;;;;;;4.55;100.00;100609.31;5116262;28;20034;-50
2023/12/12 03:24:10;;;;;;;0.40;0.40;;;;;;;4.58;100.00;100604.38;5115168;28;20028;-47
2023/12/12 03:26:35;;;;;;;0.47;0.47;;;;;;;4.50;100.00;100600.56;5116179;28;20080;-50
2023/12/12 03:29:01;;;;;;;0.40;0.40;;;;;;;4.50;100.00;100605.66;5115966;28;20381;-50
2023/12/12 03:31:26;;;;;;;0.40;0.40;;;;;;;4.52;100.00;100604.06;5113737;28;20028;-49
2023/12/12 03:33:51;;;;;;;0.40;0.40;;;;;;;4.51;100.00;100602.31;5116357;28;20153;-48
2023/12/12 03:36:17;;;;;;;0.30;0.30;;;;;;;4.48;100.00;100602.16;5115796;28;20027;-49
2023/12/12 03:38:42;;;;;;;0.40;0.40;;;;;;;4.49;100.00;100606.44;5115055;28;20033;-51
2023/12/12 03:41:08;;;;;;;0.40;0.40;;;;;;;4.47;100.00;100602.97;5115936;28;20479;-49
2023/12/12 03:43:33;;;;;;;0.40;0.40;;;;;;;4.50;100.00;100604.78;5115494;28;20033;-48
2023/12/12 03:45:58;;;;;;;0.35;0.35;;;;;;;4.45;100.00;100594.34;5114931;28;20491;-47
2023/12/12 03:48:23;;;;;;;0.40;0.40;;;;;;;4.39;100.00;100594.03;5115104;28;20055;-49
2023/12/12 03:50:49;;;;;;;0.40;0.40;;;;;;;4.24;100.00;100587.34;5115818;28;20028;-50
2023/12/12 03:53:15;;;;;;;0.40;0.40;;;;;;;4.31;100.00;100578.34;5114727;28;20197;-50
2023/12/12 03:55:40;;;;;;;0.38;0.38;;;;;;;4.09;100.00;100571.28;5115540;28;20023;-49
2023/12/12 03:58:06;;;;;;;0.40;0.40;;;;;;;4.07;100.00;100565.22;5115563;28;20421;-50
2023/12/12 04:00:31;;;;;;;0.40;0.40;;;;;;;4.10;100.00;100565.38;5114195;28;20115;-47
2023/12/12 04:02:57;;;;;;;0.40;0.40;;;;;;;4.18;100.00;100566.63;5115320;28;20028;-47
2023/12/12 04:05:22;;;;;;;0.40;0.40;;;;;;;4.24;100.00;100558.44;5115547;28;20139;-47
2023/12/12 04:07:47;;;;;;;0.30;0.30;;;;;;;4.24;100.00;100556.75;5114647;28;20032;-48
2023/12/12 04:10:12;;;;;;;0.50;0.50;;;;;;;4.20;100.00;100562.50;5115006;28;20356;-48
2023/12/12 04:12:38;;;;;;;0.40;0.40;;;;;;;4.21;100.00;100559.16;5114399;28;20027;-50
2023/12/12 04:15:04;;;;;;;0.30;0.30;;;;;;;4.23;100.00;100557.53;5115035;28;20015;-49
2023/12/12 04:17:30;;;;;;;0.40;0.40;;;;;;;4.26;100.00;100552.59;5114767;28;20533;-49
2023/12/12 04:19:56;;;;;;;0.32;0.32;;;;;;;4.28;100.00;100548.44;5114388;28;20103;-50
2023/12/12 04:22:21;;;;;;;0.40;0.40;;;;;;;4.33;100.00;100552.91;5114886;28;20379;-48
2023/12/12 04:24:47;;;;;;;0.32;0.32;;;;;;;4.35;100.00;100548.75;5115118;28;20028;-46
2023/12/12 04:27:12;;;;;;;0.35;0.35;;;;;;;4.38;100.00;100547.22;5113920;28;20486;-49
2023/12/12 04:29:38;;;;;;;0.40;0.40;;;;;;;4.43;100.00;100547.47;5114789;28;20055;-50
2023/12/12 04:32:04;;;;;;;0.40;0.40;;;;;;;4.42;100.00;100546.59;5114771;28;20027;-48
2023/12/12 04:34:33;;;;;;;0.40;0.40;;;;;;;4.45;100.00;100548.41;5113915;28;20024;-48
2023/12/12 04:37:02;;;;;;;0.30;0.30;;;;;;;4.50;100.00;100546.09;5114815;28;20035;-46
2023/12/12 04:39:28;;;;;;;0.40;0.40;;;;;;;4.54;100.00;100548.84;5114480;28;20024;-49
2023/12/12 04:41:53;;;;;;;0.30;0.30;;;;;;;4.58;100.00;100540.56;5113525;28;20031;-51
2023/12/12 04:44:18;;;;;;;0.30;0.30;;;;;;;4.60;100.00;100530.44;5114459;28;20095;-47
2023/12/12 04:46:44;;;;;;;0.30;0.30;;;;;;;4.60;100.00;100535.53;5114522;28;20073;-47
2023/12/12 04:49:09;;;;;;;0.40;0.40;;;;;;;4.61;100.00;100533.06;5113407;28;20047;-45
2023/12/12 04:51:34;;;;;;;0.32;0.32;;;;;;;4.64;100.00;100531.47;5114345;28;20065;-48
2023/12/12 04:54:00;;;;;;;0.40;0.40;;;;;;;4.63;100.00;100524.59;5114425;28;20030;-50
2023/12/12 04:56:25;;;;;;;0.40;0.40;;;;;;;4.70;100.00;100529.19;5113294;28;20030;-47
2023/12/12 04:58:50;;;;;;;0.40;0.40;;;;;;;4.67;100.00;100517.16;5114209;28;20095;-49
2023/12/12 05:01:16;;;;;;;0.35;0.35;;;;;;;4.68;100.00;100518.03;5113854;28;20023;-49
2023/12/12 05:03:41;;;;;;;0.40;0.40;;;;;;;4.71;100.00;100524.19;5113622;28;20079;-49
2023/12/12 05:06:10;;;;;;;0.40;0.40;;;;;;;4.74;100.00;100519.19;5114325;28;20012;-49
2023/12/12 05:08:36;;;;;;;0.40;0.40;;;;;;;4.74;100.00;100526.00;5114471;28;20043;-50
2023/12/12 05:11:01;;;;;;;0.30;0.30;;;;;;;4.75;100.00;100513.31;5113332;28;20071;-49
2023/12/12 05:13:26;;;;;;;0.30;0.30;;;;;;;4.78;100.00;100515.13;5113840;28;20016;-50
2023/12/12 05:15:52;;;;;;;0.40;0.40;;;;;;;4.80;100.00;100508.41;5113100;28;20502;-49
2023/12/12 05:18:17;;;;;;;0.40;0.40;;;;;;;4.84;100.00;100510.31;5113489;28;20084;-51
2023/12/12 05:20:43;;;;;;;0.32;0.32;;;;;;;4.86;100.00;100500.16;5113953;28;20038;-49
2023/12/12 05:23:08;;;;;;;0.30;0.30;;;;;;;4.88;100.00;100502.00;5113252;28;20016;-48
2023/12/12 05:25:33;;;;;;;0.30;0.30;;;;;;;4.92;100.00;100498.78;5113592;28;20061;-50
2023/12/12 05:27:59;;;;;;;0.40;0.40;;;;;;;4.94;100.00;100497.19;5113804;28;20103;-49
2023/12/12 05:30:24;;;;;;;0.40;0.40;;;;;;;4.98;100.00;100487.94;5112508;28;20024;-50
2023/12/12 05:32:50;;;;;;;0.40;0.40;;;;;;;5.01;100.00;100493.22;5113800;28;20046;-51
2023/12/12 05:35:15;;;;;;;0.40;0.40;;;;;;;5.04;100.00;100484.81;5113366;28;20422;-49
2023/12/12 05:37:40;;;;;;;0.40;0.40;;;;;;;5.09;100.00;100491.03;5112859;28;20023;-49
2023/12/12 05:40:06;;;;;;;0.30;0.30;;;;;;;5.11;100.00;100489.41;5113630;28;20030;-49
2023/12/12 05:42:32;;;;;;;0.40;0.40;;;;;;;5.11;100.00;100485.19;5113230;28;20024;-48
2023/12/12 05:44:57;;;;;;;0.40;0.40;;;;;;;5.14;100.00;100488.66;5112680;28;20414;-48
2023/12/12 05:47:22;;;;;;;0.40;0.40;;;;;;;5.13;100.00;100487.78;5112769;28;20143;-47
2023/12/12 05:49:48;;;;;;;0.32;0.32;;;;;;;5.14;100.00;100487.00;5113334;28;20020;-50
2023/12/12 05:52:14;;;;;;;0.40;0.40;;;;;;;5.15;100.00;100487.84;5112303;28;20080;-49
2023/12/12 05:54:40;;;;;;;0.30;0.30;;;;;;;5.15;100.00;100486.19;5112735;28;20029;-50
2023/12/12 05:57:05;;;;;;;0.40;0.40;;;;;;;5.16;100.00;100495.59;5113284;28;20023;-50
2023/12/12 05:59:31;;;;;;;0.30;0.30;;;;;;;5.17;100.00;100489.69;5112067;28;20023;-51
2023/12/12 06:01:56;;;;;;;0.30;0.30;;;;;;;5.18;100.00;100496.53;5113421;28;20030;-50
2023/12/12 06:04:22;;;;;;;0.30;0.30;;;;;;;5.17;100.00;100487.13;5113052;28;20028;-50
2023/12/12 06:06:47;;;;;;;0.40;0.40;;;;;;;5.20;100.00;100483.84;5112519;28;20068;-50
2023/12/12 06:09:13;;;;;;;0.30;0.30;;;;;;;5.20;100.00;100483.84;5112835;28;20328;-49
2023/12/12 06:11:39;;;;;;;0.40;0.40;;;;;;;5.20;100.00;100487.28;5113091;28;20144;-46
2023/12/12 06:14:05;;;;;;;0.30;0.30;;;;;;;5.21;100.00;100483.91;5112357;28;20145;-49
2023/12/12 06:16:31;;;;;;;0.30;0.30;;;;;;;5.23;100.00;100484.84;5112988;28;20479;-49
2023/12/12 06:18:56;;;;;;;0.30;0.30;;;;;;;5.24;100.00;100491.72;5113213;28;20027;-50
2023/12/12 06:21:22;;;;;;;0.45;0.45;;;;;;;5.27;100.00;100481.63;5112163;28;20046;-50
2023/12/12 06:23:47;;;;;;;0.40;0.40;;;;;;;5.29;100.00;100474.03;5113297;28;20023;-50
2023/12/12 06:26:14;;;;;;;0.40;0.40;;;;;;;5.31;100.00;100472.44;5112113;28;20106;-50
2023/12/12 06:28:39;;;;;;;0.40;0.40;;;;;;;5.32;100.00;100465.63;5112973;28;20028;-49
2023/12/12 06:31:05;;;;;;;0.30;0.30;;;;;;;5.27;100.00;100461.19;5113127;28;20019;-48
2023/12/12 06:33:30;;;;;;;0.30;0.30;;;;;;;5.26;100.00;100459.44;5112038;28;20160;-48
2023/12/12 06:35:56;;;;;;;0.28;0.28;;;;;;;5.30;100.00;100454.47;5112840;28;20027;-47
2023/12/12 06:38:22;;;;;;;0.30;0.30;;;;;;;5.30;100.00;100457.03;5112553;28;20440;-48
2023/12/12 06:40:47;;;;;;;0.40;0.40;;;;;;;5.33;100.00;100445.25;5112191;28;20542;-49
2023/12/12 06:43:12;;;;;;;0.38;0.38;;;;;;;5.34;100.00;100449.56;5112723;28;20023;-51
2023/12/12 06:45:37;;;;;;;0.40;0.40;;;;;;;5.35;100.00;100443.63;5113147;28;20035;-47
2023/12/12 06:48:03;;;;;;;0.40;0.40;;;;;;;5.36;100.00;100439.38;5111095;28;20109;-50
2023/12/12 06:50:28;;;;;;;0.30;0.30;;;;;;;5.36;100.00;100429.16;5092319;28;20039;-50
2023/12/12 06:52:54;;;;;;;0.40;0.40;;;;;;;5.37;100.00;100425.81;5092512;28;20391;-49
2023/12/12 06:55:20;;;;;;;0.30;0.30;;;;;;;5.38;100.00;100427.56;5091196;28;20388;-50
2023/12/12 06:57:45;;;;;;;0.40;0.40;;;;;;;5.40;100.00;100426.81;5092344;28;20043;-48
2023/12/12 07:00:12;;;;;;;0.40;0.40;;;;;;;5.40;100.00;100420.84;5092094;28;20468;-50
2023/12/12 07:02:37;;;;;;;0.30;0.30;;;;;;;5.42;100.00;100419.22;5091765;28;20037;-49
2023/12/12 07:05:04;;;;;;;0.40;0.40;;;;;;;5.42;100.00;100416.66;5092939;28;20016;-48
2023/12/12 07:07:30;;;;;;;0.40;0.40;;;;;;;5.40;100.00;100415.75;5095637;28;20142;-48
2023/12/12 07:09:55;;;;;;;0.30;0.30;;;;;;;5.40;100.00;100418.31;5095239;28;20118;-49
2023/12/12 07:12:20;;;;;;;0.40;0.40;;;;;;;5.43;100.00;100415.88;5095663;28;20020;-46
2023/12/12 07:14:46;;;;;;;0.32;0.32;;;;;;;5.40;100.00;100411.50;5095762;28;20111;-51
2023/12/12 07:17:11;;;;;;;0.40;0.40;;;;;;;5.40;100.00;100418.31;5094975;28;20031;-47
2023/12/12 07:19:36;;;;;;;0.30;0.30;;;;;;;5.43;100.00;100420.97;5095920;28;20024;-47
2023/12/12 07:22:02;;;;;;;0.40;0.40;;;;;;;5.41;100.00;100423.47;5095779;28;20431;-49
2023/12/12 07:24:28;;;;;;;0.40;0.40;;;;;;;5.45;100.00;100421.94;5094698;28;20037;-47
2023/12/12 07:26:53;;;;;;;0.30;0.30;;;;;;;5.46;100.00;100418.53;5095425;28;20024;-47
2023/12/12 07:29:19;;;;;;;0.30;0.30;;;;;;;5.50;100.00;100415.34;5095535;28;20024;-46
2023/12/12 07:31:45;;;;;;;0.40;0.40;;;;;;;5.51;100.00;100421.31;5095011;28;20031;-46
2023/12/12 07:34:11;;;;;;;0.40;0.40;;;;;;;5.52;100.00;100403.47;5095423;28;20028;-44
2023/12/12 07:36:37;;;;;;;0.30;0.30;;;;;;;5.54;100.00;100403.53;5094766;28;20494;-47
2023/12/12 07:39:05;;;;;;;0.38;0.38;;;;;;;5.54;100.00;100404.44;5095528;28;20028;-49
2023/12/12 07:41:34;;;;;;;0.40;0.40;;;;;;;5.50;100.00;100402.56;5095019;28;20031;-49
2023/12/12 07:44:00;;;;;;;0.38;0.38;;;;;;;5.51;100.00;100403.41;5094771;28;20032;-49
2023/12/12 07:46:25;;;;;;;0.30;0.30;;;;;;;5.56;100.00;100407.91;5094933;28;20016;-49
2023/12/12 07:48:51;;;;;;;0.30;0.30;;;;;;;5.61;100.00;100396.19;5095037;28;20044;-44
2023/12/12 07:51:17;;;;;;;0.30;0.30;;;;;;;5.64;100.00;100390.34;5094265;28;20082;-45
2023/12/12 07:53:42;;;;;;;0.40;0.40;;;;;;;5.69;100.00;100382.88;5095166;28;20020;-45
2023/12/12 07:56:08;;;;;;;0.30;0.30;;;;;;;5.70;100.00;100379.50;5095268;28;20024;-50
2023/12/12 07:58:33;;;;;;;0.40;0.40;;;;;;;5.73;100.00;100377.06;5093914;28;20464;-45
2023/12/12 08:00:59;;;;;;;0.35;0.35;;;;;;;5.76;100.00;100375.53;5095005;28;20395;-49
2023/12/12 08:03:24;;;;;;;0.30;0.30;;;;;;;5.80;100.00;100375.63;5094600;28;20111;-46
2023/12/12 08:05:49;;;;;;;0.40;0.40;;;;;;;5.79;100.00;100374.78;5094176;28;20028;-49
2023/12/12 08:08:15;;;;;;;0.30;0.30;;;;;;;5.82;100.00;100374.03;5094610;28;20028;-45
2023/12/12 08:10:40;;;;;;;0.30;0.30;;;;;;;5.78;100.00;100367.91;5094643;28;20038;-44
2023/12/12 08:13:06;;;;;;;0.30;0.30;;;;;;;5.81;100.00;100368.06;5093903;28;20020;-48
2023/12/12 08:15:31;;;;;;;0.30;0.30;;;;;;;5.80;100.00;100363.75;5094381;28;20028;-49
2023/12/12 08:17:56;;;;;;;0.40;0.40;;;;;;;5.84;100.00;100368.16;5094171;28;20023;-45
2023/12/12 08:20:21;;;;;;;0.30;0.30;;;;;;;5.88;100.00;100362.34;5093622;28;20114;-50
2023/12/12 08:22:47;;;;;;;0.40;0.40;;;;;;;5.91;100.00;100362.50;5094508;28;20030;-48
2023/12/12 08:25:12;;;;;;;0.40;0.40;;;;;;;5.92;100.00;100359.09;5094130;28;20039;-49
2023/12/12 08:27:37;;;;;;;0.40;0.40;;;;;;;5.93;100.00;100353.19;5093824;28;20028;-46
2023/12/12 08:30:07;;;;;;;0.40;0.40;;;;;;;6.01;100.00;100350.09;5094602;28;20345;-49
2023/12/12 08:32:33;;;;;;;0.40;0.40;;;;;;;6.05;100.00;100347.72;5094140;28;20028;-48
2023/12/12 08:34:58;;;;;;;0.30;0.30;;;;;;;6.10;100.00;100340.22;5093489;28;20088;-47
2023/12/12 08:37:23;;;;;;;0.38;0.38;;;;;;;6.13;100.00;100335.22;5094023;28;20031;-49
2023/12/12 08:39:49;;;;;;;0.30;0.30;;;;;;;6.18;100.00;100337.97;5093463;28;20070;-49
2023/12/12 08:42:14;;;;;;;0.30;0.30;;;;;;;6.24;100.00;100333.97;5093789;28;20073;-50
2023/12/12 08:44:42;;;;;;;0.30;0.30;;;;;;;6.26;100.00;100337.47;5094386;28;20032;-46
2023/12/12 08:47:08;;;;;;;0.30;0.30;;;;;;;6.30;100.00;100330.78;5093296;28;20132;-50
2023/12/12 08:49:37;;;;;;;0.30;0.30;;;;;;;6.35;100.00;100334.41;5094124;28;20070;-47
2023/12/12 08:52:04;;;;;;;0.40;0.40;;;;;;;6.42;100.00;100332.94;5094051;28;20073;-50
2023/12/12 08:54:29;;;;;;;0.30;0.30;;;;;;;6.46;100.00;100324.56;5092967;28;20040;-45
2023/12/12 08:56:55;;;;;;;0.30;0.30;;;;;;;6.52;100.00;100318.78;5094078;28;20039;-50
2023/12/12 08:59:21;;;;;;;0.40;0.40;;;;;;;6.59;100.00;100311.38;5093381;28;20027;-45
2023/12/12 09:01:46;;;;;;;0.40;0.40;;;;;;;6.68;100.00;100318.53;5093143;28;20024;-51
2023/12/12 09:04:14;;;;;;;0.30;0.30;;;;;;;6.78;100.00;100321.44;5093478;28;20020;-50
2023/12/12 09:06:40;;;;;;;0.30;0.30;;;;;;;6.86;100.00;100320.91;5093879;28;20020;-49
2023/12/12 09:09:06;;;;;;;0.40;0.40;;;;;;;6.94;100.00;100320.31;5092938;28;20073;-49
2023/12/12 09:11:33;;;;;;;0.30;0.30;;;;;;;7.02;100.00;100316.31;5093597;28;20026;-48
2023/12/12 09:13:59;;;;;;;0.30;0.30;;;;;;;7.05;100.00;100311.28;5093703;28;20020;-49
2023/12/12 09:16:24;;;;;;;0.30;0.30;;;;;;;7.13;100.00;100307.31;5092620;28;20035;-51
2023/12/12 09:18:50;;;;;;;0.30;0.30;;;;;;;7.17;100.00;100295.50;5093563;28;20024;-48
2023/12/12 09:21:16;;;;;;;0.40;0.40;;;;;;;7.23;100.00;100296.56;5093308;28;20028;-48
2023/12/12 09:23:41;;;;;;;0.30;0.30;;;;;;;7.33;100.00;100289.19;5092540;28;20097;-49
2023/12/12 09:26:12;;;;;;;0.30;0.30;;;;;;;7.38;100.00;100279.97;5093318;28;20353;-47
2023/12/12 09:28:42;;;;;;;0.35;0.35;;;;;;;7.47;100.00;100279.41;5092618;28;20032;-46
2023/12/12 09:31:09;;;;;;;0.32;0.32;;;;;;;7.53;100.00;100280.47;5092763;28;20027;-46
2023/12/12 09:33:35;;;;;;;0.30;0.30;;;;;;;7.61;100.00;100277.28;5093003;28;20480;-48
2023/12/12 09:36:00;;;;;;;0.30;0.30;;;;;;;7.66;100.00;100279.19;5092670;28;20035;-45
2023/12/12 09:38:25;;;;;;;0.30;0.30;;;;;;;7.74;100.00;100276.84;5092839;28;20020;-50
2023/12/12 09:40:51;;;;;;;0.30;0.30;;;;;;;7.79;100.00;100269.31;5093248;28;20379;-49
2023/12/12 09:43:18;;;;;;;0.30;0.30;;;;;;;7.85;100.00;100277.19;5092198;28;20146;-49
2023/12/12 09:45:47;;;;;;;0.22;0.22;;;;;;;7.91;100.00;100273.13;5093106;28;20032;-45
2023/12/12 09:48:16;;;;;;;0.20;0.20;;;;;;;7.99;100.00;100275.06;5092424;28;20063;-47
2023/12/12 09:50:45;;;;;;;0.20;0.20;;;;;;;8.06;100.00;100272.72;5092148;28;20028;-50
2023/12/12 09:53:12;;;;;;;0.30;0.30;;;;;;;8.15;100.00;100267.00;5092636;28;20428;-50
2023/12/12 09:55:37;;;;;;;0.20;0.20;;;;;;;8.27;100.00;100261.34;5092913;28;20472;-46
2023/12/12 09:58:02;;;;;;;0.30;0.30;;;;;;;8.34;100.00;100252.13;5092240;28;20025;-44
2023/12/12 10:00:28;;;;;;;0.30;0.30;;;;;;;8.40;100.00;100250.63;5092620;28;20020;-46
2023/12/12 10:02:58;;;;;;;0.20;0.20;;;;;;;8.41;100.00;100242.09;5092922;28;20476;-44
2023/12/12 10:05:25;;;;;;;0.30;0.30;;;;;;;8.45;100.00;100235.34;5091654;28;20028;-45
2023/12/12 10:07:53;;;;;;;0.30;0.30;;;;;;;8.47;100.00;100226.03;5092997;28;20036;-45
2023/12/12 10:10:18;;;;;;;0.30;0.30;;;;;;;8.52;100.00;100218.44;5092502;28;20433;-47
2023/12/12 10:12:47;;;;;;;0.20;0.20;;;;;;;8.57;100.00;100214.28;5092142;28;20032;-50
2023/12/12 10:15:25;;;;;;;0.30;0.30;;;;;;;8.67;100.00;100205.16;5092405;28;20028;-50
2023/12/12 10:17:58;;;;;;;0.20;0.20;;;;;;;8.74;100.00;100199.38;5092696;28;20051;-46
2023/12/12 10:20:26;;;;;;;0.30;0.30;;;;;;;8.87;100.00;100195.38;5091829;28;20033;-45
2023/12/12 10:22:53;;;;;;;0.20;0.20;;;;;;;8.96;100.00;100190.50;5092761;28;20016;-46
2023/12/12 10:25:18;;;;;;;0.20;0.20;;;;;;;9.13;100.00;100190.94;5091667;28;20081;-46
2023/12/12 10:27:44;;;;;;;0.20;0.20;;;;;;;9.31;100.00;100189.63;5092653;28;20429;-45
2023/12/12 10:30:12;;;;;;;0.20;0.20;;;;;;;9.44;100.00;100186.53;5092583;28;20030;-46
2023/12/12 10:32:37;;;;;;;;;;;;;;;9.61;100.00;100186.06;5092322;28;20027;-50
2023/12/12 10:35:03;;;;;;;0.20;0.20;;;;;;;9.67;100.00;100183.59;5092825;28;19916;-45
2023/12/12 10:37:28;;;;;;;0.20;0.20;;;;;;;9.77;100.00;100179.53;5092480;28;20497;-50
2023/12/12 10:39:54;;;;;;;0.30;0.30;;;;;;;9.91;100.00;100178.13;5092093;28;20483;-48
2023/12/12 10:42:19;;;;;;;0.20;0.20;;;;;;;10.01;100.00;100176.63;5096336;28;20031;-50
2023/12/12 10:44:53;;;;;;;0.20;0.20;;;;;;;10.14;100.00;100183.75;5096533;28;20054;-49
2023/12/12 10:47:20;;;;;;;0.20;0.20;;;;;;;10.22;100.00;100176.19;5095329;28;20028;-46
2023/12/12 10:49:48;;;;;;;0.20;0.20;;;;;;;10.30;100.00;100166.03;5096627;28;20036;-49
2023/12/12 10:52:15;;;;;;;;;;;;;;;10.53;100.00;100163.94;5096485;28;20028;-50
2023/12/12 10:54:42;;;;;;;0.20;0.20;;;;;;;10.50;100.00;100158.75;5095496;28;19916;-49
2023/12/12 10:57:09;;;;;;;0.20;0.20;;;;;;;10.35;100.00;100159.28;5096300;28;20110;-50
2023/12/12 10:59:37;;;;;;;0.20;0.20;;;;;;;10.22;100.00;100165.88;5096062;28;20103;-50
2023/12/12 11:02:03;;;;;;;0.20;0.20;;;;;;;10.09;100.00;100163.91;5095530;28;20028;-50
2023/12/12 11:04:29;;;;;;;0.20;0.20;;;;;;;10.03;100.00;100151.75;5095970;28;20900;-50
2023/12/12 11:06:54;;;;;;;0.20;0.20;;;;;;;9.97;100.00;100142.22;5096045;28;20483;-46
2023/12/12 11:09:19;;;;;;;0.30;0.30;;;;;;;9.92;100.00;100136.09;5094857;28;20032;-50
2023/12/12 11:11:49;;;;;;;0.20;0.20;;;;;;;10.01;100.00;100127.72;5095981;28;20034;-51
2023/12/12 11:14:16;;;;;;;0.20;0.20;;;;;;;10.12;100.00;100117.63;5095767;28;20027;-50
2023/12/12 11:16:43;;;;;;;0.25;0.25;;;;;;;10.17;100.00;100118.56;5095041;28;20040;-49